createdAt,value
2023-11-30T00:00:53.183Z,14.90
2023-11-30T00:03:20.333Z,14.90
2023-11-30T00:05:47.527Z,14.80
2023-11-30T00:08:14.687Z,14.80
2023-11-30T00:10:41.791Z,14.80
2023-11-30T00:13:08.875Z,14.70
2023-11-30T00:15:36.429Z,14.70
2023-11-30T00:18:03.678Z,14.70
2023-11-30T00:20:30.779Z,14.70
2023-11-30T00:22:57.883Z,14.70
2023-11-30T00:25:24.940Z,14.70
2023-11-30T00:27:52.576Z,14.70
2023-11-30T00:30:19.731Z,14.70
2023-11-30T00:32:47.036Z,14.60
2023-11-30T00:35:14.200Z,14.70
2023-11-30T00:37:41.265Z,14.70
2023-11-30T00:40:09.264Z,14.60
2023-11-30T00:42:36.576Z,14.60
2023-11-30T00:45:04.165Z,14.60
2023-11-30T00:47:31.398Z,14.60
2023-11-30T00:49:58.638Z,14.70
2023-11-30T00:52:25.749Z,14.80
2023-11-30T00:54:52.858Z,14.90
2023-11-30T00:57:19.924Z,14.80
2023-11-30T00:59:47.294Z,14.90
2023-11-30T01:02:14.516Z,14.90
2023-11-30T01:04:43.245Z,14.90
2023-11-30T01:07:10.383Z,14.90
2023-11-30T01:09:40.419Z,14.90
2023-11-30T01:12:07.983Z,14.80
2023-11-30T01:14:35.270Z,14.80
2023-11-30T01:17:02.411Z,14.70
2023-11-30T01:19:29.526Z,14.70
2023-11-30T01:21:56.575Z,14.60
2023-11-30T01:24:24.207Z,14.90
2023-11-30T01:26:51.330Z,14.60
2023-11-30T01:29:18.418Z,14.60
2023-11-30T01:31:45.574Z,14.70
2023-11-30T01:34:12.714Z,14.70
2023-11-30T01:36:40.031Z,14.60
2023-11-30T01:39:07.193Z,14.60
2023-11-30T01:41:37.407Z,14.70
2023-11-30T01:44:04.692Z,14.80
2023-11-30T01:46:32.284Z,14.70
2023-11-30T01:49:00.012Z,14.70
2023-11-30T01:51:27.834Z,15.30
2023-11-30T01:53:57.051Z,14.70
2023-11-30T01:56:24.446Z,14.80
2023-11-30T01:58:52.782Z,14.80
2023-11-30T02:01:20.907Z,14.90
2023-11-30T02:03:48.289Z,14.80
2023-11-30T02:06:20.105Z,14.80
2023-11-30T02:08:47.380Z,14.80
2023-11-30T02:11:14.991Z,14.80
2023-11-30T02:13:42.036Z,14.80
2023-11-30T02:16:09.726Z,14.80
2023-11-30T02:18:36.844Z,14.80
2023-11-30T02:21:04.145Z,14.90
2023-11-30T02:23:31.225Z,14.90
2023-11-30T02:25:58.284Z,14.90
2023-11-30T02:28:25.368Z,14.80
2023-11-30T02:30:52.486Z,14.90
2023-11-30T02:33:19.842Z,14.90
2023-11-30T02:35:46.998Z,14.90
2023-11-30T02:38:14.120Z,14.90
2023-11-30T02:40:41.329Z,14.90
2023-11-30T02:43:08.378Z,14.90
2023-11-30T02:45:35.493Z,15.20
2023-11-30T02:48:03.035Z,14.80
2023-11-30T02:50:30.194Z,14.80
2023-11-30T02:52:57.261Z,14.70
2023-11-30T02:55:24.319Z,14.70
2023-11-30T02:57:52.360Z,14.70
2023-11-30T03:00:19.848Z,14.70
2023-11-30T03:02:47.662Z,14.80
2023-11-30T03:05:14.740Z,14.70
2023-11-30T03:07:42.055Z,14.70
2023-11-30T03:10:09.637Z,14.70
2023-11-30T03:12:36.701Z,14.70
2023-11-30T03:15:04.129Z,14.70
2023-11-30T03:17:31.981Z,14.70
2023-11-30T03:19:59.083Z,14.70
2023-11-30T03:22:26.200Z,14.70
2023-11-30T03:24:53.789Z,14.70
2023-11-30T03:27:20.854Z,14.70
2023-11-30T03:29:48.045Z,14.70
2023-11-30T03:32:15.189Z,14.80
2023-11-30T03:34:42.278Z,14.80
2023-11-30T03:37:09.626Z,14.80
2023-11-30T03:39:36.775Z,14.90
2023-11-30T03:42:04.215Z,14.90
2023-11-30T03:44:31.312Z,14.90
2023-11-30T03:46:58.381Z,14.90
2023-11-30T03:49:25.456Z,14.90
2023-11-30T03:51:52.530Z,14.90
2023-11-30T03:54:19.652Z,14.90
2023-11-30T03:56:46.736Z,14.90
2023-11-30T03:59:13.803Z,14.90
2023-11-30T04:01:40.914Z,15.00
2023-11-30T04:04:08.088Z,14.90
2023-11-30T04:06:35.229Z,14.90
2023-11-30T04:09:02.344Z,14.90
2023-11-30T04:11:29.566Z,14.80
2023-11-30T04:14:06.249Z,14.80
2023-11-30T04:16:35.445Z,14.80
2023-11-30T04:19:03.087Z,14.70
2023-11-30T04:21:30.860Z,14.70
2023-11-30T04:23:58.027Z,14.70
2023-11-30T04:26:26.766Z,14.70
2023-11-30T04:28:53.907Z,14.70
2023-11-30T04:31:21.059Z,14.70
2023-11-30T04:33:48.161Z,14.60
2023-11-30T04:36:15.384Z,14.70
2023-11-30T04:38:42.491Z,14.60
2023-11-30T04:41:09.655Z,15.00
2023-11-30T04:43:38.355Z,14.70
2023-11-30T04:46:05.810Z,14.80
2023-11-30T04:48:32.945Z,14.80
2023-11-30T04:51:00.100Z,14.80
2023-11-30T04:53:27.209Z,14.80
2023-11-30T04:55:55.344Z,14.80
2023-11-30T04:58:22.477Z,14.80
2023-11-30T05:00:50.337Z,14.80
2023-11-30T05:03:17.769Z,14.80
2023-11-30T05:05:45.170Z,14.80
2023-11-30T05:08:13.450Z,14.80
2023-11-30T05:10:41.703Z,14.80
2023-11-30T05:13:08.805Z,14.80
2023-11-30T05:15:39.298Z,14.80
2023-11-30T05:18:07.548Z,14.80
2023-11-30T05:20:34.878Z,14.80
2023-11-30T05:23:02.443Z,14.90
2023-11-30T05:25:33.333Z,14.90
2023-11-30T05:28:00.913Z,14.80
2023-11-30T05:30:28.457Z,14.90
2023-11-30T05:32:55.582Z,14.80
2023-11-30T05:35:25.463Z,14.90
2023-11-30T05:37:52.888Z,14.80
2023-11-30T05:40:20.612Z,14.60
2023-11-30T05:42:48.568Z,14.80
2023-11-30T05:45:15.851Z,14.90
2023-11-30T05:47:43.107Z,15.00
2023-11-30T05:50:10.837Z,14.80
2023-11-30T05:52:37.972Z,14.90
2023-11-30T05:55:08.357Z,14.90
2023-11-30T05:57:36.616Z,14.90
2023-11-30T06:00:07.229Z,14.90
2023-11-30T06:02:34.334Z,14.90
2023-11-30T06:05:01.435Z,14.90
2023-11-30T06:07:28.814Z,14.90
2023-11-30T06:09:55.968Z,14.90
2023-11-30T06:12:23.205Z,14.90
2023-11-30T06:14:50.291Z,14.80
2023-11-30T06:17:18.148Z,14.80
2023-11-30T06:19:45.388Z,15.00
2023-11-30T06:22:13.458Z,14.70
2023-11-30T06:24:40.508Z,14.70
2023-11-30T06:27:08.390Z,14.70
2023-11-30T06:29:35.516Z,14.70
2023-11-30T06:32:03.800Z,14.70
2023-11-30T06:34:30.956Z,14.70
2023-11-30T06:36:58.023Z,15.40
2023-11-30T06:39:25.815Z,14.80
2023-11-30T06:41:53.805Z,14.80
2023-11-30T06:44:21.340Z,14.80
2023-11-30T06:46:48.545Z,14.80
2023-11-30T06:49:15.774Z,14.90
2023-11-30T06:51:42.939Z,14.90
2023-11-30T06:54:10.173Z,14.90
2023-11-30T06:56:37.268Z,14.90
2023-11-30T06:59:04.343Z,14.80
2023-11-30T07:01:31.738Z,14.70
2023-11-30T07:03:58.972Z,14.60
2023-11-30T07:06:26.221Z,14.50
2023-11-30T07:08:53.334Z,14.50
2023-11-30T07:11:20.395Z,14.50
2023-11-30T07:13:48.542Z,14.50
2023-11-30T07:16:15.671Z,14.60
2023-11-30T07:18:42.861Z,14.70
2023-11-30T07:21:14.680Z,14.70
2023-11-30T07:23:43.167Z,14.80
2023-11-30T07:26:14.418Z,14.80
2023-11-30T07:28:42.398Z,14.80
2023-11-30T07:31:17.201Z,14.90
2023-11-30T07:33:44.470Z,14.80
2023-11-30T07:36:13.964Z,15.40
2023-11-30T07:38:41.347Z,14.80
2023-11-30T07:41:08.935Z,14.80
2023-11-30T07:43:36.462Z,14.80
2023-11-30T07:46:03.726Z,14.80
2023-11-30T07:48:30.889Z,14.80
2023-11-30T07:50:57.997Z,14.80
2023-11-30T07:53:25.162Z,14.80
2023-11-30T07:55:56.922Z,14.90
2023-11-30T07:58:24.677Z,14.90
2023-11-30T08:00:52.391Z,14.80
2023-11-30T08:03:19.780Z,14.80
2023-11-30T08:05:47.094Z,14.80
2023-11-30T08:08:14.258Z,14.60
2023-11-30T08:10:41.571Z,14.60
2023-11-30T08:13:12.150Z,14.40
2023-11-30T08:15:39.324Z,14.40
2023-11-30T08:18:08.836Z,14.40
2023-11-30T08:20:36.554Z,14.50
2023-11-30T08:23:04.012Z,14.30
2023-11-30T08:25:31.145Z,14.30
2023-11-30T08:27:58.240Z,14.20
2023-11-30T08:30:27.133Z,14.20
2023-11-30T08:32:54.427Z,14.20
2023-11-30T08:35:22.655Z,14.20
2023-11-30T08:37:49.812Z,14.20
2023-11-30T08:40:16.991Z,14.30
2023-11-30T08:42:44.116Z,14.20
2023-11-30T08:45:11.297Z,14.20
2023-11-30T08:47:38.431Z,14.40
2023-11-30T08:50:06.139Z,14.20
2023-11-30T08:52:33.201Z,14.20
2023-11-30T08:55:00.275Z,14.30
2023-11-30T08:57:27.406Z,14.20
2023-11-30T08:59:55.406Z,14.20
2023-11-30T09:02:25.270Z,14.10
2023-11-30T09:04:55.475Z,14.00
2023-11-30T09:07:22.943Z,14.00
2023-11-30T09:09:51.636Z,14.00
2023-11-30T09:12:19.270Z,14.10
2023-11-30T09:14:46.537Z,14.10
2023-11-30T09:17:13.676Z,14.10
2023-11-30T09:19:40.785Z,13.80
2023-11-30T09:22:08.796Z,13.70
2023-11-30T09:24:36.032Z,13.50
2023-11-30T09:27:03.767Z,13.30
2023-11-30T09:29:31.001Z,13.30
2023-11-30T09:31:59.835Z,13.60
2023-11-30T09:34:27.991Z,13.40
2023-11-30T09:36:55.073Z,13.60
2023-11-30T09:39:22.374Z,14.00
2023-11-30T09:41:49.621Z,13.90
2023-11-30T09:44:16.745Z,14.00
2023-11-30T09:46:44.290Z,13.80
2023-11-30T09:49:11.425Z,14.10
2023-11-30T09:51:42.302Z,14.20
2023-11-30T09:54:10.554Z,14.40
2023-11-30T09:56:37.682Z,14.40
2023-11-30T09:59:04.795Z,14.40
2023-11-30T10:01:33.932Z,14.40
2023-11-30T10:04:18.912Z,14.50
2023-11-30T10:06:50.236Z,14.50
2023-11-30T10:09:17.801Z,14.50
2023-11-30T10:11:45.224Z,14.60
2023-11-30T10:14:12.603Z,14.60
2023-11-30T10:16:41.675Z,14.60
2023-11-30T10:19:09.129Z,14.60
2023-11-30T10:21:38.554Z,14.60
2023-11-30T10:24:06.524Z,14.70
2023-11-30T10:26:35.555Z,14.60
2023-11-30T10:29:07.636Z,14.60
2023-11-30T10:31:38.794Z,14.60
2023-11-30T10:34:14.618Z,14.60
2023-11-30T10:36:44.398Z,14.60
2023-11-30T10:39:19.656Z,14.70
2023-11-30T10:41:54.570Z,14.70
2023-11-30T10:44:26.784Z,14.70
2023-11-30T10:46:59.404Z,14.60
2023-11-30T10:49:28.340Z,14.70
2023-11-30T10:52:03.562Z,14.50
2023-11-30T10:54:55.539Z,14.50
2023-11-30T10:57:22.865Z,14.60
2023-11-30T10:59:58.120Z,14.60
2023-11-30T11:02:26.335Z,15.40
2023-11-30T11:04:53.916Z,14.60
2023-11-30T11:07:21.014Z,14.60
2023-11-30T11:09:57.769Z,14.60
2023-11-30T11:12:27.863Z,14.70
2023-11-30T11:15:12.818Z,14.70
2023-11-30T11:18:04.788Z,14.70
2023-11-30T11:20:33.553Z,14.70
2023-11-30T11:23:03.939Z,14.70
2023-11-30T11:25:39.982Z,14.70
2023-11-30T11:28:07.959Z,14.70
2023-11-30T11:30:42.733Z,15.00
2023-11-30T11:33:10.116Z,14.70
2023-11-30T11:35:37.265Z,14.70
2023-11-30T11:38:04.331Z,14.70
2023-11-30T11:40:31.453Z,14.70
2023-11-30T11:42:59.856Z,14.70
2023-11-30T11:45:27.204Z,14.70
2023-11-30T11:47:54.837Z,15.60
2023-11-30T11:50:22.040Z,14.70
2023-11-30T11:52:50.006Z,14.70
2023-11-30T11:55:17.165Z,14.80
2023-11-30T11:57:46.001Z,14.70
2023-11-30T12:00:17.921Z,14.70
2023-11-30T12:02:45.710Z,14.70
2023-11-30T12:05:23.306Z,14.60
2023-11-30T12:07:55.238Z,14.60
2023-11-30T12:10:42.246Z,14.60
2023-11-30T12:13:12.086Z,14.60
2023-11-30T12:15:39.569Z,14.70
2023-11-30T12:18:07.957Z,14.50
2023-11-30T12:20:36.058Z,14.50
2023-11-30T12:23:03.161Z,14.60
2023-11-30T12:25:30.264Z,14.50
2023-11-30T12:27:57.626Z,14.60
2023-11-30T12:30:25.229Z,14.70
2023-11-30T12:32:52.582Z,14.60
2023-11-30T12:35:19.727Z,14.70
2023-11-30T12:37:47.540Z,14.70
2023-11-30T12:40:15.616Z,14.70
2023-11-30T12:42:45.972Z,14.70
2023-11-30T12:45:14.220Z,14.80
2023-11-30T12:47:42.160Z,14.70
2023-11-30T12:50:10.700Z,14.60
2023-11-30T12:52:38.169Z,14.70
2023-11-30T12:55:06.331Z,14.80
2023-11-30T12:57:35.457Z,14.70
2023-11-30T13:00:03.926Z,14.70
2023-11-30T13:02:31.160Z,14.70
2023-11-30T13:04:58.356Z,14.70
2023-11-30T13:07:25.578Z,14.70
2023-11-30T13:09:52.765Z,14.80
2023-11-30T13:12:21.366Z,14.80
2023-11-30T13:14:48.593Z,14.80
2023-11-30T13:17:17.806Z,14.80
2023-11-30T13:19:47.524Z,14.80
2023-11-30T13:22:14.636Z,15.20
2023-11-30T13:24:43.353Z,14.80
2023-11-30T13:27:12.169Z,14.80
2023-11-30T13:29:39.304Z,14.80
2023-11-30T13:32:07.356Z,14.80
2023-11-30T13:34:35.957Z,14.80
2023-11-30T13:37:03.120Z,14.80
2023-11-30T13:39:30.260Z,14.80
2023-11-30T13:42:00.417Z,14.80
2023-11-30T13:44:28.817Z,14.70
2023-11-30T13:46:56.467Z,14.70
2023-11-30T13:49:24.204Z,14.80
2023-11-30T13:51:51.732Z,14.60
2023-11-30T13:54:19.025Z,14.60
2023-11-30T13:56:46.136Z,14.60
2023-11-30T13:59:13.186Z,14.60
2023-11-30T14:01:40.499Z,14.80
2023-11-30T14:04:09.387Z,14.60
2023-11-30T14:06:40.763Z,14.60
2023-11-30T14:09:14.764Z,14.60
2023-11-30T14:11:42.212Z,14.60
2023-11-30T14:14:09.537Z,14.60
2023-11-30T14:16:36.677Z,14.60
2023-11-30T14:19:04.928Z,14.60
2023-11-30T14:21:32.346Z,14.60
2023-11-30T14:23:59.651Z,14.90
2023-11-30T14:26:26.963Z,14.50
2023-11-30T14:28:54.070Z,14.60
2023-11-30T14:31:21.276Z,14.70
2023-11-30T14:33:48.533Z,14.70
2023-11-30T14:36:15.828Z,14.70
2023-11-30T14:38:42.996Z,14.70
2023-11-30T14:41:10.087Z,14.80
2023-11-30T14:43:37.745Z,14.80
2023-11-30T14:46:05.087Z,14.80
2023-11-30T14:48:32.207Z,14.80
2023-11-30T14:50:59.325Z,14.80
2023-11-30T14:53:26.377Z,14.80
2023-11-30T14:55:53.492Z,14.80
2023-11-30T14:58:21.479Z,14.80
2023-11-30T15:00:49.308Z,14.70
2023-11-30T15:03:16.739Z,14.70
2023-11-30T15:05:43.930Z,14.60
2023-11-30T15:08:11.328Z,14.60
2023-11-30T15:10:38.498Z,14.70
2023-11-30T15:13:05.602Z,14.70
2023-11-30T15:15:32.722Z,14.70
2023-11-30T15:17:59.843Z,14.80
2023-11-30T15:20:26.932Z,14.80
2023-11-30T15:22:55.243Z,14.80
2023-11-30T15:25:22.361Z,14.70
2023-11-30T15:27:50.214Z,14.70
2023-11-30T15:30:18.095Z,14.20
2023-11-30T15:32:45.935Z,14.60
2023-11-30T15:35:13.164Z,14.70
2023-11-30T15:37:40.273Z,14.70
2023-11-30T15:40:09.564Z,14.70
2023-11-30T15:42:37.847Z,14.70
2023-11-30T15:45:08.706Z,14.70
2023-11-30T15:47:36.921Z,14.70
2023-11-30T15:50:04.135Z,14.80
2023-11-30T15:52:31.224Z,14.80
2023-11-30T15:54:59.343Z,14.80
2023-11-30T15:57:27.522Z,14.80
2023-11-30T15:59:54.642Z,14.90
2023-11-30T16:02:21.841Z,14.90
2023-11-30T16:04:48.970Z,15.50
2023-11-30T16:07:16.074Z,15.00
2023-11-30T16:09:44.734Z,14.90
2023-11-30T16:12:11.803Z,15.00
2023-11-30T16:14:38.929Z,14.90
2023-11-30T16:17:06.343Z,14.90
2023-11-30T16:19:36.770Z,15.00
2023-11-30T16:22:04.731Z,14.90
2023-11-30T16:24:32.236Z,15.00
2023-11-30T16:26:59.399Z,15.60
2023-11-30T16:29:26.560Z,14.90
2023-11-30T16:31:53.666Z,15.00
2023-11-30T16:34:21.023Z,14.90
2023-11-30T16:36:51.163Z,15.30
2023-11-30T16:39:18.471Z,15.00
2023-11-30T16:41:45.618Z,14.90
2023-11-30T16:44:12.938Z,14.90
2023-11-30T16:46:40.579Z,14.90
2023-11-30T16:49:08.046Z,14.90
2023-11-30T16:51:35.905Z,14.90
2023-11-30T16:54:04.028Z,14.90
2023-11-30T16:56:37.509Z,14.90
2023-11-30T16:59:06.453Z,14.80
2023-11-30T17:01:35.276Z,14.80
2023-11-30T17:04:03.651Z,14.80
2023-11-30T17:06:31.436Z,14.80
2023-11-30T17:08:59.016Z,14.80
2023-11-30T17:11:26.725Z,14.80
2023-11-30T17:13:53.990Z,15.50
2023-11-30T17:16:23.132Z,14.80
2023-11-30T17:18:50.339Z,14.80
2023-11-30T17:21:20.076Z,14.80
2023-11-30T17:23:47.229Z,14.80
2023-11-30T17:26:14.419Z,14.80
2023-11-30T17:28:41.553Z,14.80
2023-11-30T17:31:10.709Z,14.80
2023-11-30T17:33:38.012Z,14.80
2023-11-30T17:36:05.468Z,14.50
2023-11-30T17:38:32.558Z,14.80
2023-11-30T17:40:59.660Z,14.80
2023-11-30T17:43:26.711Z,14.80
2023-11-30T17:45:53.849Z,15.20
2023-11-30T17:48:22.015Z,15.40
2023-11-30T17:50:49.227Z,14.80
2023-11-30T17:53:18.079Z,14.80
2023-11-30T17:55:46.998Z,14.80
2023-11-30T17:58:14.119Z,14.80
2023-11-30T18:00:41.305Z,15.20
2023-11-30T18:03:08.399Z,14.90
2023-11-30T18:05:35.492Z,14.80
2023-11-30T18:08:02.620Z,14.80
2023-11-30T18:10:30.174Z,14.80
2023-11-30T18:12:57.694Z,14.80
2023-11-30T18:15:24.946Z,14.80
2023-11-30T18:17:52.374Z,14.90
2023-11-30T18:20:19.458Z,14.80
2023-11-30T18:22:46.515Z,14.80
2023-11-30T18:25:13.682Z,14.80
2023-11-30T18:27:40.825Z,14.90
2023-11-30T18:30:08.689Z,14.90
2023-11-30T18:32:35.827Z,14.90
2023-11-30T18:35:05.227Z,15.60
2023-11-30T18:37:32.344Z,14.90
2023-11-30T18:40:00.878Z,14.80
2023-11-30T18:42:28.064Z,14.80
2023-11-30T18:44:55.256Z,14.80
2023-11-30T18:47:22.327Z,14.70
2023-11-30T18:49:49.691Z,14.70
2023-11-30T18:52:17.824Z,14.60
2023-11-30T18:54:44.993Z,14.60
2023-11-30T18:57:12.075Z,14.60
2023-11-30T18:59:39.282Z,14.60
2023-11-30T19:02:06.921Z,14.60
2023-11-30T19:04:34.683Z,14.60
2023-11-30T19:07:01.829Z,14.60
2023-11-30T19:09:28.964Z,14.70
2023-11-30T19:11:56.034Z,15.70
2023-11-30T19:14:23.122Z,15.80
2023-11-30T19:16:50.181Z,14.80
2023-11-30T19:19:17.394Z,14.90
2023-11-30T19:21:44.786Z,14.80
2023-11-30T19:24:14.543Z,14.80
2023-11-30T19:26:43.894Z,14.60
2023-11-30T19:29:16.711Z,14.80
2023-11-30T19:31:43.816Z,14.80
2023-11-30T19:34:12.826Z,14.70
2023-11-30T19:36:40.504Z,14.70
2023-11-30T19:39:08.058Z,14.70
2023-11-30T19:41:35.264Z,14.60
2023-11-30T19:44:02.321Z,14.60
2023-11-30T19:46:29.600Z,14.60
2023-11-30T19:48:56.803Z,14.60
2023-11-30T19:51:24.055Z,14.60
2023-11-30T19:53:53.322Z,15.10
2023-11-30T19:56:21.741Z,14.60
2023-11-30T19:58:48.843Z,14.60
2023-11-30T20:01:22.633Z,14.70
2023-11-30T20:03:50.076Z,14.60
2023-11-30T20:06:17.418Z,14.60
2023-11-30T20:08:44.474Z,14.60
2023-11-30T20:11:11.738Z,14.70
2023-11-30T20:13:38.823Z,14.70
2023-11-30T20:16:07.906Z,14.60
2023-11-30T20:18:37.084Z,14.70
2023-11-30T20:21:05.936Z,14.70
2023-11-30T20:23:33.624Z,14.70
2023-11-30T20:26:01.531Z,14.70
2023-11-30T20:28:28.608Z,16.00
2023-11-30T20:30:55.761Z,15.20
2023-11-30T20:33:22.879Z,14.80
2023-11-30T20:35:49.980Z,15.20
2023-11-30T20:38:17.186Z,14.90
2023-11-30T20:40:47.195Z,14.80
2023-11-30T20:43:14.594Z,14.80
2023-11-30T20:45:42.872Z,14.80
2023-11-30T20:48:10.001Z,14.80
2023-11-30T20:50:38.043Z,14.90
2023-11-30T20:53:05.242Z,14.90
2023-11-30T20:55:32.354Z,14.80
2023-11-30T20:57:59.671Z,15.30
2023-11-30T21:00:26.782Z,15.10
2023-11-30T21:02:53.941Z,14.90
2023-11-30T21:05:23.077Z,14.90
2023-11-30T21:07:50.188Z,15.00
2023-11-30T21:10:17.342Z,14.90
2023-11-30T21:12:44.633Z,14.90
2023-11-30T21:15:11.869Z,14.90
2023-11-30T21:17:38.974Z,14.90
2023-11-30T21:20:07.099Z,14.90
2023-11-30T21:22:34.946Z,14.90
2023-11-30T21:25:02.558Z,14.90
2023-11-30T21:27:29.685Z,15.00
2023-11-30T21:29:59.553Z,14.90
2023-11-30T21:32:26.678Z,14.70
2023-11-30T21:34:55.441Z,14.90
2023-11-30T21:37:22.602Z,14.90
2023-11-30T21:39:49.754Z,14.90
2023-11-30T21:42:16.998Z,14.80
2023-11-30T21:44:44.134Z,14.80
2023-11-30T21:47:13.697Z,14.90
2023-11-30T21:49:51.625Z,15.40
2023-11-30T21:52:18.948Z,14.90
2023-11-30T21:54:46.138Z,14.80
2023-11-30T21:57:13.280Z,14.80
2023-11-30T21:59:40.383Z,14.90
2023-11-30T22:02:07.711Z,14.90
2023-11-30T22:04:35.116Z,14.90
2023-11-30T22:07:02.453Z,14.90
2023-11-30T22:09:29.598Z,14.80
2023-11-30T22:11:58.003Z,14.90
2023-11-30T22:14:25.096Z,14.90
2023-11-30T22:16:52.242Z,14.90
2023-11-30T22:19:19.427Z,14.90
2023-11-30T22:21:46.552Z,15.00
2023-11-30T22:24:15.334Z,14.90
2023-11-30T22:26:42.570Z,14.90
2023-11-30T22:29:09.834Z,14.90
2023-11-30T22:31:37.270Z,14.90
2023-11-30T22:34:04.520Z,14.90
2023-11-30T22:36:31.736Z,14.90
2023-11-30T22:38:59.075Z,15.10
2023-11-30T22:41:26.254Z,14.90
2023-11-30T22:43:53.676Z,14.90
2023-11-30T22:46:20.904Z,14.90
2023-11-30T22:48:49.962Z,14.90
2023-11-30T22:51:18.482Z,14.90
2023-11-30T22:53:46.753Z,14.90
2023-11-30T22:56:19.384Z,16.30
2023-11-30T22:58:48.278Z,14.90
2023-11-30T23:01:16.541Z,14.90
2023-11-30T23:03:44.669Z,14.90
2023-11-30T23:06:14.183Z,14.90
2023-11-30T23:08:41.331Z,14.90
2023-11-30T23:11:09.177Z,14.90
2023-11-30T23:14:14.098Z,14.90
2023-11-30T23:16:41.475Z,14.90
2023-11-30T23:19:08.855Z,14.90
2023-11-30T23:21:36.079Z,14.80
2023-11-30T23:24:03.267Z,14.80
2023-11-30T23:26:30.359Z,14.80
2023-11-30T23:28:57.430Z,15.70
2023-11-30T23:31:24.766Z,14.80
2023-11-30T23:33:51.947Z,14.60
2023-11-30T23:36:19.348Z,14.80
2023-11-30T23:38:46.785Z,14.80
2023-11-30T23:41:13.853Z,14.80
2023-11-30T23:43:40.926Z,14.80
2023-11-30T23:46:09.447Z,14.80
2023-11-30T23:48:36.699Z,14.80
2023-11-30T23:51:04.115Z,14.70
2023-11-30T23:53:31.181Z,14.70
2023-11-30T23:55:58.343Z,14.80
2023-11-30T23:58:25.445Z,14.80
